Terminal Aerodrome Forecast
Issued by NWS

Home | Current Version | Previous Version | Text Only | Print | Product List | Glossary On
Versions: 1 2 3 4 5 6 7 8 9 10 11 12 13 14 15 16 17 18 19 20 21 22 23 24 25
000
FTUS45 KGJT 071120
TAFASE
TAF
KASE 071120Z 0712/0812 20006KT P6SM VCSH SCT060 BKN120
     FM071500 02005KT P6SM VCSH SCT070 BKN120
     FM071800 33008G15KT P6SM VCTS SCT050CB BKN080
      TEMPO 0719/0723 VRB10G20KT 5SM TSRA BKN050CB
     FM080100 17006KT P6SM -SHRA VCTS SCT050CB OVC070
     FM080800 20003KT P6SM VCSH FEW050 BKN080=

USA.gov is the U.S. government's official web portal to all federal, state and local government web resources and services.